SAZM/MDD METAR and TAF weather

Enter ICAO airport designator
Station Type Date Time Source
SAZM METAR 2019/04/25 17:00 UTC NOAA

SAZM 251700Z 11012KT 9999 SCT018 SCT200 16/12 Q1027


Station Type Date Time Source
SAZM Decoded METAR 2019/04/25 17:00 UTC NOAA

Mar Del Plata Aerodrome, Argentina (SAZM) 37-56S 057-35W 21M
Apr 25, 2019 - 01:00 PM EDT / 2019.04.25 1700 UTC
Wind: from the ESE (110 degrees) at 14 MPH (12 KT):0
Visibility: greater than 7 mile(s):0
Sky conditions: partly cloudy
Temperature: 60 F (16 C)
Dew Point: 53 F (12 C)
Relative Humidity: 77%
Pressure (altimeter): 30.33 in. Hg (1027 hPa)
ob: SAZM 251700Z 11012KT 9999 SCT018 SCT200 16/12 Q1027
cycle: 17

Station Type Date Time Source
SAZM TAF 2019/04/25 18:24 UTC NOAA

TAF TAF SAZM 251700Z 2518/2618 09015KT 9999 BKN018 TX16/2518Z TN10/2610Z
BECMG 2603/2606 05015KT 7000 BR BKN015
BECMG 2610/2612 5000 RA SCT010 FEW030TCU OVC040

Example: see airport list